sensor_id;sensor_type;location;lat;lon;timestamp;temperature;humidity
42245;DHT22;27912;51.828;5.688;2023-02-28T00:00:13;-0.30;99.90
42245;DHT22;27912;51.828;5.688;2023-02-28T00:02:40;-0.40;99.90
42245;DHT22;27912;51.828;5.688;2023-02-28T00:05:07;-0.40;99.90
42245;DHT22;27912;51.828;5.688;2023-02-28T00:07:33;-0.50;99.90
42245;DHT22;27912;51.828;5.688;2023-02-28T00:09:59;-0.50;99.90
42245;DHT22;27912;51.828;5.688;2023-02-28T00:12:25;-0.50;99.90
42245;DHT22;27912;51.828;5.688;2023-02-28T00:14:51;-0.50;99.90
42245;DHT22;27912;51.828;5.688;2023-02-28T00:17:16;-0.50;99.90
42245;DHT22;27912;51.828;5.688;2023-02-28T00:19:47;-0.50;99.90
42245;DHT22;27912;51.828;5.688;2023-02-28T00:22:14;-0.50;99.90
42245;DHT22;27912;51.828;5.688;2023-02-28T00:24:39;-0.50;99.90
42245;DHT22;27912;51.828;5.688;2023-02-28T00:27:05;-0.40;99.90
42245;DHT22;27912;51.828;5.688;2023-02-28T00:29:30;-0.40;99.90
42245;DHT22;27912;51.828;5.688;2023-02-28T00:31:56;-0.30;99.90
42245;DHT22;27912;51.828;5.688;2023-02-28T00:34:21;-0.30;99.90
42245;DHT22;27912;51.828;5.688;2023-02-28T00:36:47;-0.30;99.90
42245;DHT22;27912;51.828;5.688;2023-02-28T00:39:16;-0.20;99.90
42245;DHT22;27912;51.828;5.688;2023-02-28T00:41:42;-0.20;99.90
42245;DHT22;27912;51.828;5.688;2023-02-28T00:44:07;-0.20;99.90
42245;DHT22;27912;51.828;5.688;2023-02-28T00:46:33;-0.20;99.90
42245;DHT22;27912;51.828;5.688;2023-02-28T00:48:59;-0.20;99.90
42245;DHT22;27912;51.828;5.688;2023-02-28T00:51:24;-0.20;99.90
42245;DHT22;27912;51.828;5.688;2023-02-28T00:53:50;-0.30;99.90
42245;DHT22;27912;51.828;5.688;2023-02-28T00:56:15;-0.20;99.90
42245;DHT22;27912;51.828;5.688;2023-02-28T00:58:41;-0.20;99.90
42245;DHT22;27912;51.828;5.688;2023-02-28T01:01:06;-0.20;99.90
42245;DHT22;27912;51.828;5.688;2023-02-28T01:03:32;-0.20;99.90
42245;DHT22;27912;51.828;5.688;2023-02-28T01:05:58;-0.20;99.90
42245;DHT22;27912;51.828;5.688;2023-02-28T01:08:23;-0.20;99.90
42245;DHT22;27912;51.828;5.688;2023-02-28T01:10:49;-0.20;99.90
42245;DHT22;27912;51.828;5.688;2023-02-28T01:13:15;-0.20;99.90
42245;DHT22;27912;51.828;5.688;2023-02-28T01:15:49;-0.10;99.90
42245;DHT22;27912;51.828;5.688;2023-02-28T01:18:16;0.00;99.90
42245;DHT22;27912;51.828;5.688;2023-02-28T01:20:42;0.00;99.90
42245;DHT22;27912;51.828;5.688;2023-02-28T01:23:08;0.10;99.90
42245;DHT22;27912;51.828;5.688;2023-02-28T01:25:35;0.10;99.90
42245;DHT22;27912;51.828;5.688;2023-02-28T01:28:01;0.10;99.90
42245;DHT22;27912;51.828;5.688;2023-02-28T01:30:26;0.30;99.90
42245;DHT22;27912;51.828;5.688;2023-02-28T01:32:52;0.20;99.90
42245;DHT22;27912;51.828;5.688;2023-02-28T01:35:19;0.20;99.90
42245;DHT22;27912;51.828;5.688;2023-02-28T01:37:44;0.20;99.90
42245;DHT22;27912;51.828;5.688;2023-02-28T01:40:14;0.30;99.90
42245;DHT22;27912;51.828;5.688;2023-02-28T01:42:39;0.30;99.90
42245;DHT22;27912;51.828;5.688;2023-02-28T01:47:57;0.40;99.90
42245;DHT22;27912;51.828;5.688;2023-02-28T01:50:28;0.40;99.90
42245;DHT22;27912;51.828;5.688;2023-02-28T01:52:57;0.50;99.90
42245;DHT22;27912;51.828;5.688;2023-02-28T01:55:25;0.50;99.90
42245;DHT22;27912;51.828;5.688;2023-02-28T01:57:56;0.60;99.90
42245;DHT22;27912;51.828;5.688;2023-02-28T02:00:25;0.60;99.90
42245;DHT22;27912;51.828;5.688;2023-02-28T02:02:55;0.60;99.90
42245;DHT22;27912;51.828;5.688;2023-02-28T02:05:24;0.70;99.90
42245;DHT22;27912;51.828;5.688;2023-02-28T02:07:55;0.70;99.90
42245;DHT22;27912;51.828;5.688;2023-02-28T02:10:29;0.80;99.90
42245;DHT22;27912;51.828;5.688;2023-02-28T02:13:18;0.80;99.90
42245;DHT22;27912;51.828;5.688;2023-02-28T02:16:13;0.80;99.90
42245;DHT22;27912;51.828;5.688;2023-02-28T02:18:47;0.90;99.90
42245;DHT22;27912;51.828;5.688;2023-02-28T02:24:33;1.00;99.90
42245;DHT22;27912;51.828;5.688;2023-02-28T02:35:56;1.10;99.90
42245;DHT22;27912;51.828;5.688;2023-02-28T02:38:38;1.10;99.90
42245;DHT22;27912;51.828;5.688;2023-02-28T02:41:15;1.20;99.90
42245;DHT22;27912;51.828;5.688;2023-02-28T02:43:49;1.20;99.90
42245;DHT22;27912;51.828;5.688;2023-02-28T02:46:33;1.20;99.90
42245;DHT22;27912;51.828;5.688;2023-02-28T02:49:00;1.20;99.90
42245;DHT22;27912;51.828;5.688;2023-02-28T02:51:27;1.20;99.90
42245;DHT22;27912;51.828;5.688;2023-02-28T02:54:07;1.20;99.90
42245;DHT22;27912;51.828;5.688;2023-02-28T02:56:35;1.20;99.90
42245;DHT22;27912;51.828;5.688;2023-02-28T02:59:04;1.20;99.90
42245;DHT22;27912;51.828;5.688;2023-02-28T03:01:32;1.30;99.90
42245;DHT22;27912;51.828;5.688;2023-02-28T03:04:12;1.30;99.90
42245;DHT22;27912;51.828;5.688;2023-02-28T03:06:39;1.30;99.90
42245;DHT22;27912;51.828;5.688;2023-02-28T03:09:04;1.30;99.90
42245;DHT22;27912;51.828;5.688;2023-02-28T03:11:31;1.30;99.90
42245;DHT22;27912;51.828;5.688;2023-02-28T03:17:07;1.30;99.90
42245;DHT22;27912;51.828;5.688;2023-02-28T03:25:05;1.30;99.90
42245;DHT22;27912;51.828;5.688;2023-02-28T03:28:00;1.30;99.90
42245;DHT22;27912;51.828;5.688;2023-02-28T03:30:44;1.40;99.90
42245;DHT22;27912;51.828;5.688;2023-02-28T03:33:21;1.40;99.90
42245;DHT22;27912;51.828;5.688;2023-02-28T03:35:56;1.40;99.90
42245;DHT22;27912;51.828;5.688;2023-02-28T03:38:35;1.40;99.90
42245;DHT22;27912;51.828;5.688;2023-02-28T03:41:32;1.40;99.90
42245;DHT22;27912;51.828;5.688;2023-02-28T03:43:59;1.40;99.90
42245;DHT22;27912;51.828;5.688;2023-02-28T03:46:30;1.40;99.90
42245;DHT22;27912;51.828;5.688;2023-02-28T03:49:09;1.40;99.90
42245;DHT22;27912;51.828;5.688;2023-02-28T03:51:38;1.40;99.90
42245;DHT22;27912;51.828;5.688;2023-02-28T03:54:13;1.40;99.90
42245;DHT22;27912;51.828;5.688;2023-02-28T03:56:51;1.40;99.90
42245;DHT22;27912;51.828;5.688;2023-02-28T03:59:30;1.40;99.90
42245;DHT22;27912;51.828;5.688;2023-02-28T04:01:58;1.40;99.90
42245;DHT22;27912;51.828;5.688;2023-02-28T04:04:24;1.40;99.90
42245;DHT22;27912;51.828;5.688;2023-02-28T04:06:51;1.40;99.90
42245;DHT22;27912;51.828;5.688;2023-02-28T04:09:17;1.40;99.90
42245;DHT22;27912;51.828;5.688;2023-02-28T04:11:45;1.40;99.90
42245;DHT22;27912;51.828;5.688;2023-02-28T04:14:12;1.40;99.90
42245;DHT22;27912;51.828;5.688;2023-02-28T04:16:40;1.40;99.90
42245;DHT22;27912;51.828;5.688;2023-02-28T04:19:06;1.40;99.90
42245;DHT22;27912;51.828;5.688;2023-02-28T04:21:38;1.40;99.90
42245;DHT22;27912;51.828;5.688;2023-02-28T04:24:12;1.40;99.90
42245;DHT22;27912;51.828;5.688;2023-02-28T04:26:46;1.40;99.90
42245;DHT22;27912;51.828;5.688;2023-02-28T04:29:13;1.40;99.90
42245;DHT22;27912;51.828;5.688;2023-02-28T04:31:40;1.40;99.90
42245;DHT22;27912;51.828;5.688;2023-02-28T04:34:06;1.40;99.90
42245;DHT22;27912;51.828;5.688;2023-02-28T04:36:31;1.40;99.90
42245;DHT22;27912;51.828;5.688;2023-02-28T04:38:57;1.40;99.90
42245;DHT22;27912;51.828;5.688;2023-02-28T04:41:23;1.40;99.90
42245;DHT22;27912;51.828;5.688;2023-02-28T04:43:50;1.40;99.90
42245;DHT22;27912;51.828;5.688;2023-02-28T04:46:16;1.40;99.90
42245;DHT22;27912;51.828;5.688;2023-02-28T04:48:43;1.40;99.90
42245;DHT22;27912;51.828;5.688;2023-02-28T04:51:12;1.50;99.90
42245;DHT22;27912;51.828;5.688;2023-02-28T04:53:39;1.40;99.90
42245;DHT22;27912;51.828;5.688;2023-02-28T04:56:06;1.50;99.90
42245;DHT22;27912;51.828;5.688;2023-02-28T04:58:32;1.50;99.90
42245;DHT22;27912;51.828;5.688;2023-02-28T05:01:07;1.50;99.90
42245;DHT22;27912;51.828;5.688;2023-02-28T05:03:40;1.50;99.90
42245;DHT22;27912;51.828;5.688;2023-02-28T05:06:06;1.50;99.90
42245;DHT22;27912;51.828;5.688;2023-02-28T05:08:32;1.50;99.90
42245;DHT22;27912;51.828;5.688;2023-02-28T05:10:58;1.60;99.90
42245;DHT22;27912;51.828;5.688;2023-02-28T05:13:26;1.50;99.90
42245;DHT22;27912;51.828;5.688;2023-02-28T05:15:51;1.60;99.90
42245;DHT22;27912;51.828;5.688;2023-02-28T05:18:17;1.60;99.90
42245;DHT22;27912;51.828;5.688;2023-02-28T05:20:43;1.60;99.90
42245;DHT22;27912;51.828;5.688;2023-02-28T05:23:11;1.60;99.90
42245;DHT22;27912;51.828;5.688;2023-02-28T05:25:38;1.60;99.90
42245;DHT22;27912;51.828;5.688;2023-02-28T05:28:04;1.60;99.90
42245;DHT22;27912;51.828;5.688;2023-02-28T05:30:30;1.60;99.90
42245;DHT22;27912;51.828;5.688;2023-02-28T05:32:57;1.60;99.90
42245;DHT22;27912;51.828;5.688;2023-02-28T05:35:23;1.60;99.90
42245;DHT22;27912;51.828;5.688;2023-02-28T05:37:49;1.60;99.90
42245;DHT22;27912;51.828;5.688;2023-02-28T05:40:14;1.70;99.90
42245;DHT22;27912;51.828;5.688;2023-02-28T05:42:41;1.70;99.90
42245;DHT22;27912;51.828;5.688;2023-02-28T05:45:08;1.70;99.90
42245;DHT22;27912;51.828;5.688;2023-02-28T05:47:34;1.70;99.90
42245;DHT22;27912;51.828;5.688;2023-02-28T05:50:00;1.70;99.90
42245;DHT22;27912;51.828;5.688;2023-02-28T05:52:27;1.70;99.90
42245;DHT22;27912;51.828;5.688;2023-02-28T05:54:53;1.70;99.90
42245;DHT22;27912;51.828;5.688;2023-02-28T05:57:18;1.70;99.90
42245;DHT22;27912;51.828;5.688;2023-02-28T05:59:44;1.70;99.90
42245;DHT22;27912;51.828;5.688;2023-02-28T06:02:14;1.70;99.90
42245;DHT22;27912;51.828;5.688;2023-02-28T06:04:40;1.70;99.90
42245;DHT22;27912;51.828;5.688;2023-02-28T06:07:07;1.70;99.90
42245;DHT22;27912;51.828;5.688;2023-02-28T06:09:32;1.70;99.90
42245;DHT22;27912;51.828;5.688;2023-02-28T06:11:59;1.70;99.90
42245;DHT22;27912;51.828;5.688;2023-02-28T06:14:25;1.70;99.90
42245;DHT22;27912;51.828;5.688;2023-02-28T06:16:51;1.70;99.90
42245;DHT22;27912;51.828;5.688;2023-02-28T06:19:17;1.70;99.90
42245;DHT22;27912;51.828;5.688;2023-02-28T06:21:43;1.70;99.90
42245;DHT22;27912;51.828;5.688;2023-02-28T06:24:09;1.70;99.90
42245;DHT22;27912;51.828;5.688;2023-02-28T06:26:35;1.70;99.90
42245;DHT22;27912;51.828;5.688;2023-02-28T06:29:01;1.70;99.90
42245;DHT22;27912;51.828;5.688;2023-02-28T06:31:27;1.70;99.90
42245;DHT22;27912;51.828;5.688;2023-02-28T06:33:54;1.70;99.90
42245;DHT22;27912;51.828;5.688;2023-02-28T06:36:20;1.70;99.90
42245;DHT22;27912;51.828;5.688;2023-02-28T06:38:46;1.70;99.90
42245;DHT22;27912;51.828;5.688;2023-02-28T06:41:17;1.70;99.90
42245;DHT22;27912;51.828;5.688;2023-02-28T06:43:43;1.70;99.90
42245;DHT22;27912;51.828;5.688;2023-02-28T06:46:11;1.80;99.90
42245;DHT22;27912;51.828;5.688;2023-02-28T06:48:37;1.80;99.90
42245;DHT22;27912;51.828;5.688;2023-02-28T06:51:15;1.80;99.90
42245;DHT22;27912;51.828;5.688;2023-02-28T06:53:41;1.80;99.90
42245;DHT22;27912;51.828;5.688;2023-02-28T06:56:08;1.80;99.90
42245;DHT22;27912;51.828;5.688;2023-02-28T06:58:34;1.80;99.90
42245;DHT22;27912;51.828;5.688;2023-02-28T07:01:01;1.90;99.90
42245;DHT22;27912;51.828;5.688;2023-02-28T07:03:26;1.90;99.90
42245;DHT22;27912;51.828;5.688;2023-02-28T07:05:52;1.90;99.90
42245;DHT22;27912;51.828;5.688;2023-02-28T07:08:17;2.00;99.90
42245;DHT22;27912;51.828;5.688;2023-02-28T07:10:43;2.10;99.90
42245;DHT22;27912;51.828;5.688;2023-02-28T07:13:09;2.10;99.90
42245;DHT22;27912;51.828;5.688;2023-02-28T07:15:36;2.10;99.90
42245;DHT22;27912;51.828;5.688;2023-02-28T07:18:02;2.20;99.90
42245;DHT22;27912;51.828;5.688;2023-02-28T07:20:28;2.20;99.90
42245;DHT22;27912;51.828;5.688;2023-02-28T07:22:54;2.30;99.90
42245;DHT22;27912;51.828;5.688;2023-02-28T07:25:24;2.30;99.90
42245;DHT22;27912;51.828;5.688;2023-02-28T07:27:50;2.40;99.90
42245;DHT22;27912;51.828;5.688;2023-02-28T07:30:16;2.40;99.90
42245;DHT22;27912;51.828;5.688;2023-02-28T07:32:41;2.50;99.90
42245;DHT22;27912;51.828;5.688;2023-02-28T07:35:07;2.50;99.90
42245;DHT22;27912;51.828;5.688;2023-02-28T07:37:33;2.50;99.90
42245;DHT22;27912;51.828;5.688;2023-02-28T07:40:03;2.60;99.90
42245;DHT22;27912;51.828;5.688;2023-02-28T07:42:31;2.60;99.90
42245;DHT22;27912;51.828;5.688;2023-02-28T07:44:57;2.70;99.90
42245;DHT22;27912;51.828;5.688;2023-02-28T07:47:24;2.70;99.90
42245;DHT22;27912;51.828;5.688;2023-02-28T07:49:49;2.80;99.90
42245;DHT22;27912;51.828;5.688;2023-02-28T07:52:15;2.80;99.90
42245;DHT22;27912;51.828;5.688;2023-02-28T07:54:41;2.90;99.90
42245;DHT22;27912;51.828;5.688;2023-02-28T07:57:06;3.00;99.90
42245;DHT22;27912;51.828;5.688;2023-02-28T07:59:32;3.00;99.90
42245;DHT22;27912;51.828;5.688;2023-02-28T08:01:57;3.00;99.90
42245;DHT22;27912;51.828;5.688;2023-02-28T08:04:24;3.00;99.90
42245;DHT22;27912;51.828;5.688;2023-02-28T08:06:49;3.10;99.90
42245;DHT22;27912;51.828;5.688;2023-02-28T08:09:17;3.20;99.90
42245;DHT22;27912;51.828;5.688;2023-02-28T08:11:42;3.30;99.90
42245;DHT22;27912;51.828;5.688;2023-02-28T08:14:08;3.40;99.90
42245;DHT22;27912;51.828;5.688;2023-02-28T08:16:33;3.50;99.90
42245;DHT22;27912;51.828;5.688;2023-02-28T08:18:59;3.60;99.90
42245;DHT22;27912;51.828;5.688;2023-02-28T08:21:25;3.60;99.90
42245;DHT22;27912;51.828;5.688;2023-02-28T08:23:51;3.70;99.90
42245;DHT22;27912;51.828;5.688;2023-02-28T08:26:17;3.70;99.90
42245;DHT22;27912;51.828;5.688;2023-02-28T08:28:43;3.70;99.90
42245;DHT22;27912;51.828;5.688;2023-02-28T08:31:11;3.70;99.90
42245;DHT22;27912;51.828;5.688;2023-02-28T08:33:39;3.70;99.90
42245;DHT22;27912;51.828;5.688;2023-02-28T08:36:05;3.80;99.90
42245;DHT22;27912;51.828;5.688;2023-02-28T08:38:31;3.80;99.90
42245;DHT22;27912;51.828;5.688;2023-02-28T08:41:06;3.80;99.90
42245;DHT22;27912;51.828;5.688;2023-02-28T08:43:33;3.80;99.90
42245;DHT22;27912;51.828;5.688;2023-02-28T08:45:59;3.70;99.90
42245;DHT22;27912;51.828;5.688;2023-02-28T08:48:26;3.70;99.90
42245;DHT22;27912;51.828;5.688;2023-02-28T08:51:00;3.60;99.90
42245;DHT22;27912;51.828;5.688;2023-02-28T08:53:26;3.70;99.20
42245;DHT22;27912;51.828;5.688;2023-02-28T08:55:56;3.70;99.10
42245;DHT22;27912;51.828;5.688;2023-02-28T08:58:22;3.80;98.50
42245;DHT22;27912;51.828;5.688;2023-02-28T09:00:48;3.90;97.40
42245;DHT22;27912;51.828;5.688;2023-02-28T09:03:13;3.90;95.90
42245;DHT22;27912;51.828;5.688;2023-02-28T09:05:39;3.90;95.50
42245;DHT22;27912;51.828;5.688;2023-02-28T09:08:04;4.00;95.50
42245;DHT22;27912;51.828;5.688;2023-02-28T09:10:30;4.00;94.90
42245;DHT22;27912;51.828;5.688;2023-02-28T09:12:55;4.00;94.80
42245;DHT22;27912;51.828;5.688;2023-02-28T09:15:21;4.00;94.30
42245;DHT22;27912;51.828;5.688;2023-02-28T09:17:46;4.00;93.30
42245;DHT22;27912;51.828;5.688;2023-02-28T09:20:12;4.10;93.00
42245;DHT22;27912;51.828;5.688;2023-02-28T09:22:37;4.10;92.90
42245;DHT22;27912;51.828;5.688;2023-02-28T09:25:04;4.20;92.70
42245;DHT22;27912;51.828;5.688;2023-02-28T09:27:29;4.30;92.40
42245;DHT22;27912;51.828;5.688;2023-02-28T09:29:55;4.30;92.00
42245;DHT22;27912;51.828;5.688;2023-02-28T09:32:20;4.40;91.90
42245;DHT22;27912;51.828;5.688;2023-02-28T09:34:46;4.40;91.00
42245;DHT22;27912;51.828;5.688;2023-02-28T09:37:11;4.40;90.50
42245;DHT22;27912;51.828;5.688;2023-02-28T09:39:37;4.40;88.90
42245;DHT22;27912;51.828;5.688;2023-02-28T09:42:03;4.40;89.00
42245;DHT22;27912;51.828;5.688;2023-02-28T09:44:36;4.40;88.60
42245;DHT22;27912;51.828;5.688;2023-02-28T09:47:28;4.40;88.30
42245;DHT22;27912;51.828;5.688;2023-02-28T09:49:58;4.50;88.20
42245;DHT22;27912;51.828;5.688;2023-02-28T09:52:29;4.50;87.40
42245;DHT22;27912;51.828;5.688;2023-02-28T09:54:56;4.60;87.90
42245;DHT22;27912;51.828;5.688;2023-02-28T09:57:38;4.60;87.70
42245;DHT22;27912;51.828;5.688;2023-02-28T10:00:17;4.70;87.80
42245;DHT22;27912;51.828;5.688;2023-02-28T10:02:49;4.80;87.60
42245;DHT22;27912;51.828;5.688;2023-02-28T10:05:21;4.80;86.00
42245;DHT22;27912;51.828;5.688;2023-02-28T10:10:57;4.80;83.80
42245;DHT22;27912;51.828;5.688;2023-02-28T10:21:38;5.00;83.10
42245;DHT22;27912;51.828;5.688;2023-02-28T10:24:26;5.00;82.30
42245;DHT22;27912;51.828;5.688;2023-02-28T10:26:58;5.00;81.10
42245;DHT22;27912;51.828;5.688;2023-02-28T10:29:25;5.00;80.00
42245;DHT22;27912;51.828;5.688;2023-02-28T10:31:51;5.10;80.60
42245;DHT22;27912;51.828;5.688;2023-02-28T10:34:16;5.10;80.00
42245;DHT22;27912;51.828;5.688;2023-02-28T10:36:42;5.20;78.00
42245;DHT22;27912;51.828;5.688;2023-02-28T10:39:41;5.10;77.70
42245;DHT22;27912;51.828;5.688;2023-02-28T10:42:20;5.10;78.40
42245;DHT22;27912;51.828;5.688;2023-02-28T10:44:47;5.20;77.30
42245;DHT22;27912;51.828;5.688;2023-02-28T10:47:17;5.20;76.50
42245;DHT22;27912;51.828;5.688;2023-02-28T10:49:52;5.20;75.50
42245;DHT22;27912;51.828;5.688;2023-02-28T10:52:39;5.20;75.60
42245;DHT22;27912;51.828;5.688;2023-02-28T10:55:25;5.30;76.60
42245;DHT22;27912;51.828;5.688;2023-02-28T10:57:52;5.30;74.50
42245;DHT22;27912;51.828;5.688;2023-02-28T11:00:19;5.30;74.50
42245;DHT22;27912;51.828;5.688;2023-02-28T11:02:44;5.30;73.60
42245;DHT22;27912;51.828;5.688;2023-02-28T11:05:31;5.30;73.50
42245;DHT22;27912;51.828;5.688;2023-02-28T11:08:17;5.30;72.80
42245;DHT22;27912;51.828;5.688;2023-02-28T11:10:48;5.20;71.30
42245;DHT22;27912;51.828;5.688;2023-02-28T11:13:21;5.20;70.70
42245;DHT22;27912;51.828;5.688;2023-02-28T11:15:53;5.20;71.30
42245;DHT22;27912;51.828;5.688;2023-02-28T11:18:32;5.30;70.80
42245;DHT22;27912;51.828;5.688;2023-02-28T11:21:02;5.30;70.10
42245;DHT22;27912;51.828;5.688;2023-02-28T11:23:30;5.30;68.30
42245;DHT22;27912;51.828;5.688;2023-02-28T11:26:01;5.30;68.00
42245;DHT22;27912;51.828;5.688;2023-02-28T11:28:28;5.20;67.50
42245;DHT22;27912;51.828;5.688;2023-02-28T11:33:53;5.40;68.30
42245;DHT22;27912;51.828;5.688;2023-02-28T11:36:29;5.40;68.30
42245;DHT22;27912;51.828;5.688;2023-02-28T11:39:01;5.40;68.00
42245;DHT22;27912;51.828;5.688;2023-02-28T11:44:53;5.60;69.40
42245;DHT22;27912;51.828;5.688;2023-02-28T11:50:20;5.80;67.10
42245;DHT22;27912;51.828;5.688;2023-02-28T11:52:56;5.70;65.70
42245;DHT22;27912;51.828;5.688;2023-02-28T11:55:42;5.70;66.60
42245;DHT22;27912;51.828;5.688;2023-02-28T12:01:28;5.70;67.20
42245;DHT22;27912;51.828;5.688;2023-02-28T12:07:01;5.70;68.00
42245;DHT22;27912;51.828;5.688;2023-02-28T12:09:40;5.80;67.20
42245;DHT22;27912;51.828;5.688;2023-02-28T12:17:56;5.80;66.10
42245;DHT22;27912;51.828;5.688;2023-02-28T12:20:37;5.90;66.90
42245;DHT22;27912;51.828;5.688;2023-02-28T12:23:50;6.00;66.60
42245;DHT22;27912;51.828;5.688;2023-02-28T12:29:19;5.90;66.30
42245;DHT22;27912;51.828;5.688;2023-02-28T12:31:59;5.90;65.10
42245;DHT22;27912;51.828;5.688;2023-02-28T12:34:35;5.90;66.00
42245;DHT22;27912;51.828;5.688;2023-02-28T12:37:07;6.10;66.40
42245;DHT22;27912;51.828;5.688;2023-02-28T12:39:40;6.10;66.10
42245;DHT22;27912;51.828;5.688;2023-02-28T12:42:12;6.10;65.50
42245;DHT22;27912;51.828;5.688;2023-02-28T12:44:42;6.10;65.20
42245;DHT22;27912;51.828;5.688;2023-02-28T12:47:14;6.10;63.70
42245;DHT22;27912;51.828;5.688;2023-02-28T12:49:53;6.10;64.10
42245;DHT22;27912;51.828;5.688;2023-02-28T12:52:29;6.10;63.70
42245;DHT22;27912;51.828;5.688;2023-02-28T12:55:03;6.10;62.60
42245;DHT22;27912;51.828;5.688;2023-02-28T12:57:41;6.20;62.60
42245;DHT22;27912;51.828;5.688;2023-02-28T13:00:12;6.20;62.80
42245;DHT22;27912;51.828;5.688;2023-02-28T13:11:25;6.40;63.00
42245;DHT22;27912;51.828;5.688;2023-02-28T13:14:03;6.50;63.00
42245;DHT22;27912;51.828;5.688;2023-02-28T13:17:12;6.50;62.70
42245;DHT22;27912;51.828;5.688;2023-02-28T13:19:41;6.50;62.30
42245;DHT22;27912;51.828;5.688;2023-02-28T13:24:48;6.50;62.40
42245;DHT22;27912;51.828;5.688;2023-02-28T13:29:43;6.50;61.90
42245;DHT22;27912;51.828;5.688;2023-02-28T13:34:37;6.50;62.60
42245;DHT22;27912;51.828;5.688;2023-02-28T13:39:52;6.60;62.40
42245;DHT22;27912;51.828;5.688;2023-02-28T13:47:33;6.60;62.10
42245;DHT22;27912;51.828;5.688;2023-02-28T13:52:50;6.80;61.50
42245;DHT22;27912;51.828;5.688;2023-02-28T13:55:24;6.70;60.40
42245;DHT22;27912;51.828;5.688;2023-02-28T14:06:27;6.80;60.50
42245;DHT22;27912;51.828;5.688;2023-02-28T14:11:39;6.70;61.10
42245;DHT22;27912;51.828;5.688;2023-02-28T14:14:06;6.70;61.30
42245;DHT22;27912;51.828;5.688;2023-02-28T14:16:44;6.70;61.20
42245;DHT22;27912;51.828;5.688;2023-02-28T14:19:28;6.70;60.70
42245;DHT22;27912;51.828;5.688;2023-02-28T14:25:13;6.70;60.50
42245;DHT22;27912;51.828;5.688;2023-02-28T14:28:04;6.70;60.50
42245;DHT22;27912;51.828;5.688;2023-02-28T14:33:35;6.80;61.10
42245;DHT22;27912;51.828;5.688;2023-02-28T14:36:23;6.80;60.60
42245;DHT22;27912;51.828;5.688;2023-02-28T14:38:56;6.80;61.10
42245;DHT22;27912;51.828;5.688;2023-02-28T14:41:27;6.80;61.20
42245;DHT22;27912;51.828;5.688;2023-02-28T14:43:56;6.80;60.20
42245;DHT22;27912;51.828;5.688;2023-02-28T14:46:27;6.70;59.90
42245;DHT22;27912;51.828;5.688;2023-02-28T14:48:53;6.80;60.50
42245;DHT22;27912;51.828;5.688;2023-02-28T14:51:24;6.80;60.20
42245;DHT22;27912;51.828;5.688;2023-02-28T14:53:55;6.90;60.90
42245;DHT22;27912;51.828;5.688;2023-02-28T14:56:24;6.90;61.10
42245;DHT22;27912;51.828;5.688;2023-02-28T14:58:55;6.90;61.10
42245;DHT22;27912;51.828;5.688;2023-02-28T15:01:22;6.90;61.10
42245;DHT22;27912;51.828;5.688;2023-02-28T15:03:57;6.90;61.40
42245;DHT22;27912;51.828;5.688;2023-02-28T15:06:23;6.80;60.90
42245;DHT22;27912;51.828;5.688;2023-02-28T15:09:09;6.80;60.80
42245;DHT22;27912;51.828;5.688;2023-02-28T15:11:35;6.80;61.30
42245;DHT22;27912;51.828;5.688;2023-02-28T15:14:01;6.80;61.60
42245;DHT22;27912;51.828;5.688;2023-02-28T15:16:39;6.80;61.70
42245;DHT22;27912;51.828;5.688;2023-02-28T15:19:42;6.80;61.00
42245;DHT22;27912;51.828;5.688;2023-02-28T15:22:15;6.80;61.10
42245;DHT22;27912;51.828;5.688;2023-02-28T15:27:29;6.70;61.50
42245;DHT22;27912;51.828;5.688;2023-02-28T15:29:59;6.70;60.80
42245;DHT22;27912;51.828;5.688;2023-02-28T15:32:32;6.70;61.50
42245;DHT22;27912;51.828;5.688;2023-02-28T15:34:58;6.70;61.90
42245;DHT22;27912;51.828;5.688;2023-02-28T15:42:35;6.70;62.10
42245;DHT22;27912;51.828;5.688;2023-02-28T15:45:01;6.70;62.40
42245;DHT22;27912;51.828;5.688;2023-02-28T15:47:28;6.70;62.20
42245;DHT22;27912;51.828;5.688;2023-02-28T15:50:00;6.60;62.10
42245;DHT22;27912;51.828;5.688;2023-02-28T15:52:38;6.60;62.00
42245;DHT22;27912;51.828;5.688;2023-02-28T15:55:27;6.50;61.70
42245;DHT22;27912;51.828;5.688;2023-02-28T15:57:55;6.40;61.90
42245;DHT22;27912;51.828;5.688;2023-02-28T16:00:25;6.30;62.20
42245;DHT22;27912;51.828;5.688;2023-02-28T16:02:51;6.30;62.30
42245;DHT22;27912;51.828;5.688;2023-02-28T16:05:21;6.20;62.20
42245;DHT22;27912;51.828;5.688;2023-02-28T16:07:57;6.10;62.30
42245;DHT22;27912;51.828;5.688;2023-02-28T16:10:25;6.00;62.40
42245;DHT22;27912;51.828;5.688;2023-02-28T16:12:54;6.00;62.90
42245;DHT22;27912;51.828;5.688;2023-02-28T16:15:23;6.00;63.50
42245;DHT22;27912;51.828;5.688;2023-02-28T16:17:50;5.90;63.20
42245;DHT22;27912;51.828;5.688;2023-02-28T16:20:27;5.80;63.00
42245;DHT22;27912;51.828;5.688;2023-02-28T16:22:54;5.80;63.40
42245;DHT22;27912;51.828;5.688;2023-02-28T16:25:23;5.70;63.30
42245;DHT22;27912;51.828;5.688;2023-02-28T16:27:52;5.70;63.20
42245;DHT22;27912;51.828;5.688;2023-02-28T16:30:27;5.60;63.30
42245;DHT22;27912;51.828;5.688;2023-02-28T16:32:54;5.60;63.80
42245;DHT22;27912;51.828;5.688;2023-02-28T16:35:21;5.60;64.00
42245;DHT22;27912;51.828;5.688;2023-02-28T16:37:47;5.50;64.20
42245;DHT22;27912;51.828;5.688;2023-02-28T16:40:21;5.50;64.60
42245;DHT22;27912;51.828;5.688;2023-02-28T16:42:51;5.50;65.20
42245;DHT22;27912;51.828;5.688;2023-02-28T16:45:21;5.40;65.50
42245;DHT22;27912;51.828;5.688;2023-02-28T16:47:48;5.40;65.80
42245;DHT22;27912;51.828;5.688;2023-02-28T16:50:19;5.40;66.10
42245;DHT22;27912;51.828;5.688;2023-02-28T16:52:45;5.40;66.30
42245;DHT22;27912;51.828;5.688;2023-02-28T16:55:11;5.30;66.70
42245;DHT22;27912;51.828;5.688;2023-02-28T16:57:38;5.30;67.00
42245;DHT22;27912;51.828;5.688;2023-02-28T17:00:05;5.20;67.30
42245;DHT22;27912;51.828;5.688;2023-02-28T17:02:33;5.20;67.60
42245;DHT22;27912;51.828;5.688;2023-02-28T17:04:59;5.20;68.10
42245;DHT22;27912;51.828;5.688;2023-02-28T17:07:24;5.20;68.50
42245;DHT22;27912;51.828;5.688;2023-02-28T17:09:50;5.10;68.40
42245;DHT22;27912;51.828;5.688;2023-02-28T17:12:15;5.00;69.30
42245;DHT22;27912;51.828;5.688;2023-02-28T17:14:41;5.00;69.60
42245;DHT22;27912;51.828;5.688;2023-02-28T17:17:07;5.00;69.70
42245;DHT22;27912;51.828;5.688;2023-02-28T17:19:33;4.80;70.50
42245;DHT22;27912;51.828;5.688;2023-02-28T17:22:01;4.70;69.90
42245;DHT22;27912;51.828;5.688;2023-02-28T17:24:28;4.60;70.30
42245;DHT22;27912;51.828;5.688;2023-02-28T17:26:53;4.50;70.70
42245;DHT22;27912;51.828;5.688;2023-02-28T17:29:21;4.40;71.30
42245;DHT22;27912;51.828;5.688;2023-02-28T17:31:47;4.40;71.50
42245;DHT22;27912;51.828;5.688;2023-02-28T17:34:13;4.30;71.80
42245;DHT22;27912;51.828;5.688;2023-02-28T17:36:44;4.20;72.00
42245;DHT22;27912;51.828;5.688;2023-02-28T17:39:11;4.10;72.20
42245;DHT22;27912;51.828;5.688;2023-02-28T17:41:39;4.00;72.70
42245;DHT22;27912;51.828;5.688;2023-02-28T17:44:05;3.90;73.10
42245;DHT22;27912;51.828;5.688;2023-02-28T17:46:31;3.70;73.30
42245;DHT22;27912;51.828;5.688;2023-02-28T17:48:57;3.60;73.60
42245;DHT22;27912;51.828;5.688;2023-02-28T17:51:23;3.50;74.10